Time;durP1;ratioP1;P1;durP2;ratioP2;P2;SDS_P1;SDS_P2;PMS_P1;PMS_P2;Temp;Humidity;BMP_temperature;BMP_pressure;BME280_temperature;BME280_humidity;BME280_pressure;Samples;Min_cycle;Max_cycle;Signal;HPM_P1;HPM_P2
2022/07/23 13:07:56;;;;;;;16.13;3.50;;;;;;;30.28;39.99;99772.50;6165598;22;20028;-84
2022/07/23 13:10:22;;;;;;;16.70;3.63;;;;;;;30.28;39.86;99764.44;6199005;23;20248;-84
2022/07/23 13:12:48;;;;;;;20.75;4.22;;;;;;;30.30;39.86;99760.78;6221962;23;20426;-83
2022/07/23 13:15:13;;;;;;;19.70;3.85;;;;;;;30.33;39.93;99760.47;6219732;23;20435;-83
2022/07/23 13:17:40;;;;;;;20.13;4.13;;;;;;;30.35;39.60;99763.88;6219054;23;20347;-81
2022/07/23 13:20:09;;;;;;;19.45;4.38;;;;;;;30.34;39.74;99760.31;6193036;23;20507;-83
2022/07/23 13:22:34;;;;;;;18.95;4.32;;;;;;;30.38;39.44;99758.19;6192999;23;20411;-83
2022/07/23 13:25:02;;;;;;;18.17;4.03;;;;;;;30.38;39.52;99753.66;6193016;23;20003;-83
2022/07/23 13:27:28;;;;;;;18.70;3.55;;;;;;;30.39;39.61;99760.72;6192399;23;20335;-83
2022/07/23 13:29:53;;;;;;;16.13;3.75;;;;;;;30.41;39.36;99744.44;6219290;23;20127;-84
2022/07/23 13:32:19;;;;;;;16.63;3.58;;;;;;;30.41;39.22;99741.75;6220990;23;20001;-85
2022/07/23 13:34:45;;;;;;;17.08;3.97;;;;;;;30.42;39.17;99743.44;6220650;23;20031;-84
2022/07/23 13:37:13;;;;;;;16.20;4.03;;;;;;;30.44;39.29;99740.59;6195617;23;20000;-84
2022/07/23 13:39:38;;;;;;;13.43;3.10;;;;;;;30.44;39.42;99741.44;6195752;23;20004;-84
2022/07/23 13:42:04;;;;;;;11.65;3.60;;;;;;;30.45;39.10;99743.13;6194009;23;20054;-83
2022/07/23 13:44:30;;;;;;;14.27;3.83;;;;;;;30.47;39.16;99741.16;6193090;23;20307;-83
2022/07/23 13:46:55;;;;;;;13.63;3.60;;;;;;;30.48;39.26;99737.44;6192906;23;20082;-84
2022/07/23 13:49:21;;;;;;;13.00;3.60;;;;;;;30.48;39.27;99729.38;6194282;23;20067;-83
2022/07/23 13:51:49;;;;;;;14.50;3.67;;;;;;;30.49;39.44;99728.38;6196560;23;20000;-85
2022/07/23 13:54:15;;;;;;;14.30;3.50;;;;;;;30.51;39.17;99726.38;6225969;23;20012;-84
2022/07/23 13:56:46;;;;;;;9.48;3.40;;;;;;;30.51;39.00;99726.38;6200641;23;20004;-85
2022/07/23 13:59:16;;;;;;;13.07;3.05;;;;;;;30.53;38.83;99715.44;6200058;23;20415;-84
2022/07/23 14:01:54;;;;;;;10.63;3.88;;;;;;;30.53;38.87;99716.31;6191924;23;20358;-83
2022/07/23 14:04:22;;;;;;;9.75;3.17;;;;;;;30.54;38.95;99709.91;6191485;23;20092;-83
2022/07/23 14:06:52;;;;;;;10.98;3.55;;;;;;;30.54;38.89;99709.91;6191689;23;20004;-83
2022/07/23 14:09:23;;;;;;;8.50;3.28;;;;;;;30.57;38.83;99710.59;6220426;23;20072;-83
2022/07/23 14:12:01;;;;;;;8.60;3.70;;;;;;;30.57;38.74;99697.16;6193005;23;20065;-83
2022/07/23 14:14:50;;;;;;;8.85;3.10;;;;;;;30.57;38.60;99699.84;6191675;23;20059;-84
2022/07/23 14:17:27;;;;;;;7.40;2.78;;;;;;;30.60;38.69;99696.84;6218085;23;20080;-83
2022/07/23 14:20:56;;;;;;;11.35;3.25;;;;;;;30.61;38.70;99691.31;6192063;23;20091;-83
2022/07/23 14:23:33;;;;;;;9.93;3.20;;;;;;;30.61;38.55;99683.25;6214443;23;19997;-84
2022/07/23 14:25:59;;;;;;;9.10;3.40;;;;;;;30.62;38.29;99684.06;6192762;23;20503;-84
2022/07/23 14:28:24;;;;;;;9.35;3.53;;;;;;;30.62;38.32;99679.56;6194526;23;20005;-84
2022/07/23 14:30:50;;;;;;;9.50;3.42;;;;;;;30.63;38.54;99680.38;6196351;23;20429;-84
2022/07/23 14:33:16;;;;;;;9.23;3.50;;;;;;;30.63;38.35;99670.47;6195298;23;20005;-84
2022/07/23 14:35:42;;;;;;;8.90;3.50;;;;;;;30.64;38.43;99671.28;6196173;23;20064;-83
2022/07/23 14:38:08;;;;;;;8.18;3.53;;;;;;;30.65;38.20;99668.47;6192482;23;20000;-83
2022/07/23 14:40:33;;;;;;;7.50;3.70;;;;;;;30.67;38.48;99665.63;6192144;23;20035;-83
2022/07/23 14:42:59;;;;;;;8.55;3.15;;;;;;;30.67;38.47;99660.22;6191793;23;20000;-84
2022/07/23 14:45:58;;;;;;;7.88;3.13;;;;;;;30.68;38.46;99651.16;6193564;23;20000;-86
2022/07/23 14:48:24;;;;;;;7.20;3.33;;;;;;;30.70;38.36;99659.97;6192929;23;20000;-83
2022/07/23 14:50:49;;;;;;;7.30;3.40;;;;;;;30.70;38.35;99649.19;6193130;23;20001;-83
2022/07/23 14:53:16;;;;;;;5.03;2.85;;;;;;;30.72;38.39;99657.09;6192175;23;20013;-82
2022/07/23 14:55:41;;;;;;;7.43;3.33;;;;;;;30.73;38.46;99651.56;6192697;23;20005;-83
2022/07/23 14:58:08;;;;;;;8.80;3.50;;;;;;;30.72;38.43;99644.50;6192866;23;20059;-83
2022/07/23 15:00:44;;;;;;;10.38;3.10;;;;;;;30.73;38.38;99639.94;6218861;23;20319;-83
2022/07/23 15:03:11;;;;;;;7.32;3.42;;;;;;;30.74;38.24;99650.56;6192725;23;20326;-82
2022/07/23 15:05:45;;;;;;;5.47;3.22;;;;;;;30.74;38.10;99639.78;6219304;23;20000;-83
2022/07/23 15:08:17;;;;;;;7.53;3.15;;;;;;;30.75;38.28;99646.03;6182099;23;20022;-82
2022/07/23 15:10:53;;;;;;;8.68;3.40;;;;;;;30.76;38.16;99645.03;6157864;23;20009;-83
2022/07/23 15:13:54;;;;;;;8.63;3.20;;;;;;;30.78;38.35;99646.56;6160016;23;20020;-82
2022/07/23 15:16:20;;;;;;;6.75;3.83;;;;;;;30.79;38.27;99642.03;6163838;23;20094;-82
2022/07/23 15:18:46;;;;;;;6.10;3.25;;;;;;;30.79;38.18;99632.09;6158047;23;20398;-82
2022/07/23 15:21:15;;;;;;;4.75;2.75;;;;;;;30.79;38.07;99631.28;6157636;23;20025;-83
2022/07/23 15:23:41;;;;;;;7.57;3.25;;;;;;;30.81;38.00;99634.66;6158028;23;20012;-83
2022/07/23 15:26:07;;;;;;;4.97;3.20;;;;;;;30.81;38.04;99630.09;6157693;23;20009;-83
2022/07/23 15:28:34;;;;;;;7.25;3.22;;;;;;;30.81;38.35;99632.78;6159236;23;20080;-83
2022/07/23 15:31:00;;;;;;;6.05;3.17;;;;;;;30.83;38.26;99635.31;6159917;23;20008;-83
2022/07/23 15:33:26;;;;;;;6.22;3.28;;;;;;;30.83;38.19;99629.94;6158697;23;20009;-83
2022/07/23 15:35:55;;;;;;;5.90;3.15;;;;;;;30.84;38.23;99628.94;6157909;23;20096;-83
2022/07/23 15:38:29;;;;;;;5.30;3.30;;;;;;;30.85;38.20;99627.09;6157520;23;20005;-83
2022/07/23 15:40:56;;;;;;;5.70;3.35;;;;;;;30.86;38.29;99632.34;6157373;23;20088;-82
2022/07/23 15:43:25;;;;;;;5.60;2.92;;;;;;;30.86;38.18;99626.09;6159476;23;20301;-82
2022/07/23 15:45:52;;;;;;;7.13;3.35;;;;;;;30.88;38.45;99624.09;6157623;23;20017;-83
2022/07/23 15:48:29;;;;;;;6.13;3.20;;;;;;;30.88;37.96;99618.72;6158665;23;19997;-84
2022/07/23 15:50:54;;;;;;;6.60;3.30;;;;;;;30.88;38.10;99624.09;6157731;23;20417;-83
2022/07/23 15:53:51;;;;;;;6.20;3.10;;;;;;;30.89;38.32;99617.72;6160223;23;20036;-83
2022/07/23 15:56:20;;;;;;;4.22;3.05;;;;;;;30.90;38.29;99614.84;6161965;23;20028;-83
2022/07/23 15:58:46;;;;;;;4.50;2.83;;;;;;;30.91;38.21;99626.47;6162729;23;20332;-83
2022/07/23 16:01:14;;;;;;;4.93;3.00;;;;;;;30.91;38.08;99623.78;6158567;23;19998;-82
2022/07/23 16:04:01;;;;;;;4.63;3.33;;;;;;;30.92;38.33;99620.06;6158241;23;20009;-83
2022/07/23 16:06:27;;;;;;;4.70;2.95;;;;;;;30.92;38.10;99617.38;6163877;23;20012;-85
2022/07/23 16:09:00;;;;;;;5.93;3.30;;;;;;;30.93;38.15;99619.06;6165724;23;20013;-85
2022/07/23 16:12:14;;;;;;;5.72;3.30;;;;;;;30.93;38.40;99614.53;6165877;23;20061;-83
2022/07/23 16:14:44;;;;;;;5.93;3.60;;;;;;;30.93;38.46;99617.22;6166842;23;20040;-86
2022/07/23 16:17:22;;;;;;;5.20;3.38;;;;;;;30.94;38.40;99612.72;6166487;23;20001;-83
2022/07/23 16:19:48;;;;;;;5.32;3.33;;;;;;;30.94;38.25;99610.00;6157076;23;20169;-83
2022/07/23 16:22:19;;;;;;;5.25;3.35;;;;;;;30.95;38.10;99619.78;6159858;23;20382;-82
2022/07/23 16:28:17;;;;;;;6.65;3.50;;;;;;;30.95;38.15;99614.41;6161720;23;20040;-83
2022/07/23 16:30:48;;;;;;;5.40;3.30;;;;;;;30.95;38.21;99609.84;6163618;23;20006;-84
2022/07/23 16:33:52;;;;;;;5.18;3.40;;;;;;;30.97;38.21;99612.38;6159752;23;20005;-84
2022/07/23 16:36:38;;;;;;;5.22;3.45;;;;;;;30.97;38.46;99611.56;6158824;23;20001;-83
2022/07/23 16:39:04;;;;;;;4.68;3.50;;;;;;;30.97;38.21;99607.00;6157246;23;20001;-83
2022/07/23 16:41:35;;;;;;;4.88;3.50;;;;;;;30.98;38.11;99602.47;6158402;23;20009;-83
2022/07/23 16:44:41;;;;;;;5.75;2.97;;;;;;;30.97;38.21;99607.00;6157227;23;20432;-85
2022/07/23 16:47:56;;;;;;;5.47;3.30;;;;;;;30.99;38.13;99604.97;6155604;23;20012;-84
2022/07/23 16:50:26;;;;;;;5.55;3.75;;;;;;;30.97;38.38;99596.22;6158273;23;20005;-83
2022/07/23 16:52:52;;;;;;;4.95;3.10;;;;;;;30.98;38.25;99597.06;6157799;23;20019;-84
2022/07/23 16:55:36;;;;;;;5.75;3.78;;;;;;;30.99;38.43;99602.28;6157511;23;20036;-84
2022/07/23 16:58:12;;;;;;;4.82;3.47;;;;;;;30.98;38.57;99597.91;6157439;23;20084;-85
2022/07/23 17:00:59;;;;;;;5.20;3.63;;;;;;;30.98;37.99;99597.91;6158058;23;20002;-82
2022/07/23 17:03:29;;;;;;;5.05;3.30;;;;;;;30.97;38.25;99596.22;6159667;23;20002;-82
2022/07/23 17:06:12;;;;;;;5.82;3.72;;;;;;;30.98;38.43;99589.81;6159145;23;20001;-85
2022/07/23 17:08:40;;;;;;;5.07;3.30;;;;;;;30.98;38.23;99595.19;6184237;23;20017;-84
2022/07/23 17:14:29;;;;;;;4.65;3.33;;;;;;;31.00;38.30;99589.66;6220701;23;20020;-84
2022/07/23 17:17:10;;;;;;;4.85;3.08;;;;;;;30.99;37.96;99590.69;6196593;23;20004;-84
2022/07/23 17:20:20;;;;;;;5.05;3.42;;;;;;;30.98;38.00;99597.91;6198883;23;20079;-84
2022/07/23 17:23:04;;;;;;;5.05;3.75;;;;;;;30.98;38.38;99592.50;6220785;23;20000;-84
2022/07/23 17:25:29;;;;;;;6.35;3.17;;;;;;;30.98;38.37;99597.91;6193456;23;20009;-84
2022/07/23 17:28:23;;;;;;;4.70;3.00;;;;;;;30.97;38.15;99590.81;6191486;23;20005;-83
2022/07/23 17:31:25;;;;;;;5.88;3.53;;;;;;;30.98;38.02;99597.06;6191562;23;19996;-83
2022/07/23 17:33:51;;;;;;;5.97;3.13;;;;;;;30.97;38.06;99593.50;6191824;23;20062;-82
2022/07/23 17:36:18;;;;;;;5.55;3.33;;;;;;;30.95;37.96;99582.88;6217705;23;20039;-83
2022/07/23 17:38:44;;;;;;;5.65;3.47;;;;;;;30.95;37.89;99587.44;6191334;23;20004;-83
2022/07/23 17:41:09;;;;;;;5.50;3.58;;;;;;;30.96;37.91;99594.53;6191395;23;20005;-83
2022/07/23 17:43:35;;;;;;;5.38;3.60;;;;;;;30.95;38.00;99592.84;6191136;23;20403;-84
2022/07/23 17:46:09;;;;;;;5.90;3.78;;;;;;;30.95;37.95;99587.44;6191385;23;20058;-84
2022/07/23 17:48:34;;;;;;;5.05;3.72;;;;;;;30.95;37.89;99598.22;6191601;23;20292;-82
2022/07/23 17:51:02;;;;;;;7.32;4.00;;;;;;;30.93;37.53;99589.44;6217821;23;20074;-84
2022/07/23 17:53:30;;;;;;;5.50;3.65;;;;;;;30.93;37.72;99601.06;6191547;23;20004;-82
2022/07/23 17:55:56;;;;;;;5.93;3.95;;;;;;;30.92;37.65;99594.00;6191334;23;20300;-82
2022/07/23 17:58:21;;;;;;;5.18;3.72;;;;;;;30.92;37.63;99593.13;6191629;23;20091;-82
2022/07/23 18:00:47;;;;;;;5.55;3.92;;;;;;;30.92;37.68;99598.53;6191164;23;20012;-84
2022/07/23 18:03:13;;;;;;;6.10;4.18;;;;;;;30.91;37.32;99602.22;6217997;23;20427;-82
2022/07/23 18:05:40;;;;;;;6.97;4.18;;;;;;;30.90;37.06;99603.22;6192046;23;19996;-84
2022/07/23 18:08:06;;;;;;;5.88;3.97;;;;;;;30.90;37.29;99603.22;6222537;23;20008;-84
2022/07/23 18:10:33;;;;;;;7.30;3.60;;;;;;;30.89;37.39;99609.63;6197845;23;20004;-84
2022/07/23 18:12:59;;;;;;;5.60;3.80;;;;;;;30.89;37.35;99604.25;6199401;23;20400;-84
2022/07/23 18:15:25;;;;;;;5.57;3.90;;;;;;;30.88;37.13;99610.63;6225659;23;20031;-83
2022/07/23 18:17:51;;;;;;;6.18;4.20;;;;;;;30.87;37.28;99617.84;6197379;23;20091;-85
2022/07/23 18:20:17;;;;;;;6.22;3.90;;;;;;;30.87;37.25;99606.22;6198092;23;20007;-84
2022/07/23 18:22:42;;;;;;;5.20;3.97;;;;;;;30.87;37.14;99611.63;6197997;23;20023;-85
2022/07/23 18:25:10;;;;;;;6.88;4.00;;;;;;;30.85;37.09;99608.25;6196667;23;19997;-86
2022/07/23 18:27:37;;;;;;;5.72;3.80;;;;;;;30.86;37.16;99618.88;6201345;23;20007;-86
2022/07/23 18:30:04;;;;;;;4.80;4.18;;;;;;;30.85;36.90;99610.94;6230177;23;19996;-87
2022/07/23 18:32:30;;;;;;;7.78;4.40;;;;;;;30.84;36.80;99617.31;6230287;23;19996;-86
2022/07/23 18:34:56;;;;;;;6.72;4.30;;;;;;;30.84;36.48;99617.31;6203178;23;20009;-85
2022/07/23 18:37:23;;;;;;;7.15;4.63;;;;;;;30.83;36.68;99621.84;6197999;23;20090;-85
2022/07/23 18:39:49;;;;;;;7.50;4.40;;;;;;;30.82;36.70;99617.47;6198438;23;20039;-84
2022/07/23 18:42:15;;;;;;;7.78;4.93;;;;;;;30.81;36.74;99623.88;6193800;23;20059;-87
2022/07/23 18:44:42;;;;;;;8.15;4.30;;;;;;;30.80;36.71;99617.63;6200725;23;20008;-90
2022/07/23 18:47:08;;;;;;;6.65;4.68;;;;;;;30.80;36.57;99614.94;6176358;23;20148;-89
2022/07/23 18:49:35;;;;;;;7.45;4.68;;;;;;;30.78;36.35;99619.63;6199434;23;20001;-89
2022/07/23 18:52:05;;;;;;;8.63;4.30;;;;;;;30.78;36.33;99614.25;6200113;23;20135;-89
2022/07/23 18:54:31;;;;;;;9.13;4.82;;;;;;;30.78;36.44;99618.78;6200006;23;20359;-89
2022/07/23 18:56:57;;;;;;;9.15;4.72;;;;;;;30.78;36.22;99621.47;6201650;23;20039;-89
2022/07/23 18:59:23;;;;;;;9.80;5.05;;;;;;;30.76;36.14;99615.41;6199191;23;20020;-89
2022/07/23 19:01:48;;;;;;;8.27;4.57;;;;;;;30.75;36.35;99614.53;6224993;23;20004;-88
2022/07/23 19:04:14;;;;;;;7.03;4.65;;;;;;;30.74;36.24;99615.56;6198924;23;20005;-89
2022/07/23 19:06:40;;;;;;;8.38;4.75;;;;;;;30.74;36.19;99612.84;6196754;23;20000;-89
2022/07/23 19:12:19;;;;;;;8.93;5.00;;;;;;;30.73;36.02;99615.69;6212985;23;20043;-88
2022/07/23 19:14:52;;;;;;;9.80;5.10;;;;;;;30.73;36.39;99621.09;6238366;23;20015;-91
2022/07/23 19:24:11;;;;;;;8.32;5.07;;;;;;;30.69;36.09;99612.47;6117784;23;20029;-91
2022/07/23 19:26:37;;;;;;;9.35;5.30;;;;;;;30.69;36.17;99623.25;6116860;23;20016;-90
2022/07/23 19:29:04;;;;;;;6.38;4.78;;;;;;;30.68;36.14;99618.84;6093197;23;20006;-93
2022/07/23 19:31:29;;;;;;;7.68;4.93;;;;;;;30.67;36.03;99620.69;6141107;23;20289;-92
2022/07/23 19:33:57;;;;;;;8.45;4.85;;;;;;;30.67;36.17;99618.00;6211123;23;20047;-90
2022/07/23 19:36:24;;;;;;;8.35;5.18;;;;;;;30.67;36.14;99626.09;6236765;23;19996;-92
2022/07/23 19:38:50;;;;;;;11.05;5.10;;;;;;;30.64;36.30;99622.81;6238254;23;20303;-93
2022/07/23 19:41:17;;;;;;;8.40;5.22;;;;;;;30.64;36.12;99625.50;6238142;23;20059;-92
2022/07/23 19:43:44;;;;;;;8.07;5.47;;;;;;;30.64;36.29;99628.22;6237184;23;19996;-90
2022/07/23 19:46:40;;;;;;;9.70;5.30;;;;;;;30.63;36.44;99631.91;6215529;23;20005;-92
2022/07/23 20:18:18;;;;;;;7.35;5.45;;;;;;;30.53;37.03;99665.16;6232571;23;20042;-85
2022/07/23 20:21:19;;;;;;;8.70;5.78;;;;;;;30.51;37.03;99672.50;6204673;23;20005;-87
2022/07/23 20:33:56;;;;;;;8.32;4.38;;;;;;;30.48;37.15;99680.91;6236026;23;20043;-89
2022/07/23 20:36:41;;;;;;;12.07;5.03;;;;;;;30.46;37.12;99682.88;6205696;23;20012;-89
2022/07/23 20:39:08;;;;;;;9.55;5.35;;;;;;;30.46;37.12;99690.97;6208119;23;20004;-90
2022/07/23 20:41:38;;;;;;;9.10;4.82;;;;;;;30.46;37.07;99692.81;6205018;23;20091;-89
2022/07/23 20:44:06;;;;;;;8.15;5.70;;;;;;;30.45;37.23;99693.84;6230627;23;19997;-88
2022/07/23 20:46:33;;;;;;;11.25;5.75;;;;;;;30.44;37.28;99692.13;6209233;23;20028;-88
2022/07/23 20:49:17;;;;;;;10.10;5.28;;;;;;;30.43;37.26;99685.91;6210974;23;20083;-88
2022/07/23 21:05:21;;;;;;;9.10;5.95;;;;;;;30.37;37.22;99691.88;6236843;22;20075;-91
2022/07/23 21:07:48;;;;;;;11.00;6.05;;;;;;;30.37;37.25;99689.19;6213071;23;20004;-92
2022/07/23 21:10:41;;;;;;;11.95;6.15;;;;;;;30.35;36.99;99688.50;6212520;23;20407;-90
2022/07/23 21:23:18;;;;;;;10.93;6.18;;;;;;;30.31;37.15;99693.31;6236934;23;20019;-92
2022/07/23 21:25:50;;;;;;;8.95;6.03;;;;;;;30.30;37.18;99696.19;6216348;23;20009;-93
2022/07/23 21:28:31;;;;;;;11.40;5.80;;;;;;;30.28;37.48;99691.78;6241917;23;20004;-93
2022/07/23 21:30:59;;;;;;;11.27;5.50;;;;;;;30.27;37.06;99695.47;6192185;23;20000;-94
2022/07/23 21:33:47;;;;;;;9.43;5.70;;;;;;;30.26;37.52;99696.47;6217307;23;20039;-93
2022/07/23 21:36:41;;;;;;;12.63;5.90;;;;;;;30.26;37.44;99687.56;6217488;23;20004;-91
2022/07/23 21:39:26;;;;;;;7.00;5.50;;;;;;;30.24;37.31;99690.41;6237693;23;20000;-90
2022/07/23 21:42:05;;;;;;;11.85;5.82;;;;;;;30.24;37.36;99687.69;6213596;23;20555;-91
2022/07/23 21:44:35;;;;;;;11.70;5.70;;;;;;;30.23;37.22;99688.72;6216761;23;20008;-91
2022/07/23 21:47:02;;;;;;;7.97;5.10;;;;;;;30.22;37.44;99686.97;6217155;23;20004;-92
2022/07/23 21:55:59;;;;;;;8.30;5.25;;;;;;;30.19;37.32;99690.00;6244436;23;20051;-90
2022/07/23 21:58:32;;;;;;;7.85;5.93;;;;;;;30.16;37.35;99684.06;6218980;23;19989;-91
2022/07/23 22:08:09;;;;;;;7.88;5.50;;;;;;;30.13;37.18;99690.59;6242845;23;20104;-89
2022/07/23 22:23:30;;;;;;;10.43;6.63;;;;;;;30.06;37.76;99684.91;6239419;23;20008;-89
2022/07/23 22:30:09;;;;;;;7.65;6.03;;;;;;;30.06;37.76;99692.16;6243170;23;20052;-89
2022/07/23 22:32:57;;;;;;;8.32;6.05;;;;;;;30.02;37.77;99689.75;6237768;23;20028;-91
2022/07/23 22:41:46;;;;;;;8.50;6.18;;;;;;;30.00;37.78;99697.13;6242324;23;20015;-91
2022/07/23 23:04:06;;;;;;;7.93;4.57;;;;;;;29.69;39.08;99693.84;6244256;23;20039;-85
